sensor_id;sensor_type;location;lat;lon;timestamp;temperature;humidity
27848;DHT22;15212;48.830;8.730;2023-07-29T00:01:12;16.70;99.90
27848;DHT22;15212;48.830;8.730;2023-07-29T00:03:40;16.70;99.90
27848;DHT22;15212;48.830;8.730;2023-07-29T00:06:10;16.70;99.90
27848;DHT22;15212;48.830;8.730;2023-07-29T00:08:38;16.70;99.90
27848;DHT22;15212;48.830;8.730;2023-07-29T00:11:06;16.70;99.90
27848;DHT22;15212;48.830;8.730;2023-07-29T00:13:35;16.80;99.90
27848;DHT22;15212;48.830;8.730;2023-07-29T00:16:03;16.70;99.90
27848;DHT22;15212;48.830;8.730;2023-07-29T00:18:32;16.80;99.90
27848;DHT22;15212;48.830;8.730;2023-07-29T00:21:01;16.80;99.90
27848;DHT22;15212;48.830;8.730;2023-07-29T00:23:29;16.80;99.90
27848;DHT22;15212;48.830;8.730;2023-07-29T00:25:57;16.80;99.90
27848;DHT22;15212;48.830;8.730;2023-07-29T00:28:26;16.80;99.90
27848;DHT22;15212;48.830;8.730;2023-07-29T00:30:54;16.80;99.90
27848;DHT22;15212;48.830;8.730;2023-07-29T00:33:23;16.80;99.90
27848;DHT22;15212;48.830;8.730;2023-07-29T00:35:51;16.90;99.90
27848;DHT22;15212;48.830;8.730;2023-07-29T00:38:19;16.80;99.90
27848;DHT22;15212;48.830;8.730;2023-07-29T00:40:48;16.80;99.90
27848;DHT22;15212;48.830;8.730;2023-07-29T00:43:16;16.80;99.90
27848;DHT22;15212;48.830;8.730;2023-07-29T00:45:45;16.90;99.90
27848;DHT22;15212;48.830;8.730;2023-07-29T00:48:15;16.90;99.90
27848;DHT22;15212;48.830;8.730;2023-07-29T00:50:43;16.90;99.90
27848;DHT22;15212;48.830;8.730;2023-07-29T00:53:12;16.90;99.90
27848;DHT22;15212;48.830;8.730;2023-07-29T00:55:41;17.00;99.90
27848;DHT22;15212;48.830;8.730;2023-07-29T00:58:10;17.00;99.90
27848;DHT22;15212;48.830;8.730;2023-07-29T01:00:39;17.00;99.90
27848;DHT22;15212;48.830;8.730;2023-07-29T01:03:08;17.00;99.90
27848;DHT22;15212;48.830;8.730;2023-07-29T01:06:01;17.00;99.90
27848;DHT22;15212;48.830;8.730;2023-07-29T01:11:03;17.00;99.90
27848;DHT22;15212;48.830;8.730;2023-07-29T01:13:41;17.00;99.90
27848;DHT22;15212;48.830;8.730;2023-07-29T01:16:16;17.00;99.90
27848;DHT22;15212;48.830;8.730;2023-07-29T01:18:50;17.00;99.90
27848;DHT22;15212;48.830;8.730;2023-07-29T01:21:20;16.90;99.90
27848;DHT22;15212;48.830;8.730;2023-07-29T01:23:57;16.90;99.90
27848;DHT22;15212;48.830;8.730;2023-07-29T01:26:26;16.80;99.90
27848;DHT22;15212;48.830;8.730;2023-07-29T01:28:57;16.80;99.90
27848;DHT22;15212;48.830;8.730;2023-07-29T01:31:31;16.70;99.90
27848;DHT22;15212;48.830;8.730;2023-07-29T01:34:23;16.70;99.90
27848;DHT22;15212;48.830;8.730;2023-07-29T01:36:52;16.60;99.90
27848;DHT22;15212;48.830;8.730;2023-07-29T01:39:23;16.60;99.90
27848;DHT22;15212;48.830;8.730;2023-07-29T01:41:53;16.60;99.90
27848;DHT22;15212;48.830;8.730;2023-07-29T01:44:22;16.60;99.90
27848;DHT22;15212;48.830;8.730;2023-07-29T01:46:50;16.50;99.90
27848;DHT22;15212;48.830;8.730;2023-07-29T01:49:19;16.50;99.90
27848;DHT22;15212;48.830;8.730;2023-07-29T01:51:47;16.50;99.90
27848;DHT22;15212;48.830;8.730;2023-07-29T01:54:15;16.50;99.90
27848;DHT22;15212;48.830;8.730;2023-07-29T01:56:44;16.40;99.90
27848;DHT22;15212;48.830;8.730;2023-07-29T01:59:12;16.40;99.90
27848;DHT22;15212;48.830;8.730;2023-07-29T02:01:42;16.30;99.90
27848;DHT22;15212;48.830;8.730;2023-07-29T02:04:12;16.30;99.90
27848;DHT22;15212;48.830;8.730;2023-07-29T02:06:41;16.20;99.90
27848;DHT22;15212;48.830;8.730;2023-07-29T02:09:09;16.20;99.90
27848;DHT22;15212;48.830;8.730;2023-07-29T02:11:37;16.20;99.90
27848;DHT22;15212;48.830;8.730;2023-07-29T02:14:06;16.10;99.90
27848;DHT22;15212;48.830;8.730;2023-07-29T02:16:34;16.20;99.90
27848;DHT22;15212;48.830;8.730;2023-07-29T02:19:04;16.20;99.90
27848;DHT22;15212;48.830;8.730;2023-07-29T02:21:32;16.20;99.90
27848;DHT22;15212;48.830;8.730;2023-07-29T02:24:01;16.10;99.90
27848;DHT22;15212;48.830;8.730;2023-07-29T02:26:29;16.10;99.90
27848;DHT22;15212;48.830;8.730;2023-07-29T02:28:57;16.20;99.90
27848;DHT22;15212;48.830;8.730;2023-07-29T02:31:26;16.10;99.90
27848;DHT22;15212;48.830;8.730;2023-07-29T02:33:54;16.10;99.90
27848;DHT22;15212;48.830;8.730;2023-07-29T02:36:23;16.20;99.90
27848;DHT22;15212;48.830;8.730;2023-07-29T02:38:51;16.20;99.90
27848;DHT22;15212;48.830;8.730;2023-07-29T02:41:19;16.20;99.90
27848;DHT22;15212;48.830;8.730;2023-07-29T02:43:51;16.30;99.90
27848;DHT22;15212;48.830;8.730;2023-07-29T02:46:19;16.30;99.90
27848;DHT22;15212;48.830;8.730;2023-07-29T02:48:48;16.30;99.90
27848;DHT22;15212;48.830;8.730;2023-07-29T02:51:16;16.40;99.90
27848;DHT22;15212;48.830;8.730;2023-07-29T02:53:45;16.40;99.90
27848;DHT22;15212;48.830;8.730;2023-07-29T02:56:13;16.40;99.90
27848;DHT22;15212;48.830;8.730;2023-07-29T02:58:42;16.40;99.90
27848;DHT22;15212;48.830;8.730;2023-07-29T03:01:11;16.40;99.90
27848;DHT22;15212;48.830;8.730;2023-07-29T03:03:40;16.50;99.90
27848;DHT22;15212;48.830;8.730;2023-07-29T03:06:10;16.50;99.90
27848;DHT22;15212;48.830;8.730;2023-07-29T03:08:39;16.60;99.90
27848;DHT22;15212;48.830;8.730;2023-07-29T03:11:12;16.70;99.90
27848;DHT22;15212;48.830;8.730;2023-07-29T03:13:42;16.70;99.90
27848;DHT22;15212;48.830;8.730;2023-07-29T03:16:15;16.70;99.90
27848;DHT22;15212;48.830;8.730;2023-07-29T03:18:45;16.70;99.90
27848;DHT22;15212;48.830;8.730;2023-07-29T03:21:14;16.80;99.90
27848;DHT22;15212;48.830;8.730;2023-07-29T03:23:42;16.80;99.90
27848;DHT22;15212;48.830;8.730;2023-07-29T03:26:10;16.80;99.90
27848;DHT22;15212;48.830;8.730;2023-07-29T03:28:41;16.80;99.90
27848;DHT22;15212;48.830;8.730;2023-07-29T03:31:10;16.80;99.90
27848;DHT22;15212;48.830;8.730;2023-07-29T03:33:39;16.90;99.90
27848;DHT22;15212;48.830;8.730;2023-07-29T03:36:07;16.90;99.90
27848;DHT22;15212;48.830;8.730;2023-07-29T03:38:36;16.90;99.90
27848;DHT22;15212;48.830;8.730;2023-07-29T03:41:07;16.90;99.90
27848;DHT22;15212;48.830;8.730;2023-07-29T03:43:36;16.90;99.90
27848;DHT22;15212;48.830;8.730;2023-07-29T03:46:04;16.90;99.90
27848;DHT22;15212;48.830;8.730;2023-07-29T03:48:33;16.90;99.90
27848;DHT22;15212;48.830;8.730;2023-07-29T03:51:01;16.90;99.90
27848;DHT22;15212;48.830;8.730;2023-07-29T03:53:30;16.80;99.90
27848;DHT22;15212;48.830;8.730;2023-07-29T03:55:59;16.80;99.90
27848;DHT22;15212;48.830;8.730;2023-07-29T03:58:27;16.70;99.90
27848;DHT22;15212;48.830;8.730;2023-07-29T04:00:55;16.70;99.90
27848;DHT22;15212;48.830;8.730;2023-07-29T04:03:24;16.70;99.90
27848;DHT22;15212;48.830;8.730;2023-07-29T04:05:53;16.60;99.90
27848;DHT22;15212;48.830;8.730;2023-07-29T04:08:21;16.60;99.90
27848;DHT22;15212;48.830;8.730;2023-07-29T04:10:49;16.60;99.90
27848;DHT22;15212;48.830;8.730;2023-07-29T04:13:18;16.60;99.90
27848;DHT22;15212;48.830;8.730;2023-07-29T04:15:46;16.60;99.90
27848;DHT22;15212;48.830;8.730;2023-07-29T04:18:15;16.60;99.90
27848;DHT22;15212;48.830;8.730;2023-07-29T04:20:44;16.60;99.90
27848;DHT22;15212;48.830;8.730;2023-07-29T04:23:12;16.60;99.90
27848;DHT22;15212;48.830;8.730;2023-07-29T04:25:41;16.60;99.90
27848;DHT22;15212;48.830;8.730;2023-07-29T04:28:09;16.60;99.90
27848;DHT22;15212;48.830;8.730;2023-07-29T04:30:37;16.60;99.90
27848;DHT22;15212;48.830;8.730;2023-07-29T04:33:06;16.60;99.90
27848;DHT22;15212;48.830;8.730;2023-07-29T04:35:34;16.60;99.90
27848;DHT22;15212;48.830;8.730;2023-07-29T04:38:02;16.50;99.90
27848;DHT22;15212;48.830;8.730;2023-07-29T04:40:33;16.60;99.90
27848;DHT22;15212;48.830;8.730;2023-07-29T04:43:01;16.60;99.90
27848;DHT22;15212;48.830;8.730;2023-07-29T04:45:30;16.60;99.90
27848;DHT22;15212;48.830;8.730;2023-07-29T04:47:59;16.60;99.90
27848;DHT22;15212;48.830;8.730;2023-07-29T04:50:28;16.60;99.90
27848;DHT22;15212;48.830;8.730;2023-07-29T04:52:56;16.70;99.90
27848;DHT22;15212;48.830;8.730;2023-07-29T04:55:24;16.70;99.90
27848;DHT22;15212;48.830;8.730;2023-07-29T04:57:53;16.80;99.90
27848;DHT22;15212;48.830;8.730;2023-07-29T05:00:21;16.70;99.90
27848;DHT22;15212;48.830;8.730;2023-07-29T05:02:50;16.80;99.90
27848;DHT22;15212;48.830;8.730;2023-07-29T05:05:18;16.80;99.90
27848;DHT22;15212;48.830;8.730;2023-07-29T05:07:46;16.90;99.90
27848;DHT22;15212;48.830;8.730;2023-07-29T05:10:15;16.90;99.90
27848;DHT22;15212;48.830;8.730;2023-07-29T05:12:43;16.90;99.90
27848;DHT22;15212;48.830;8.730;2023-07-29T05:15:11;17.00;99.90
27848;DHT22;15212;48.830;8.730;2023-07-29T05:17:40;17.00;99.90
27848;DHT22;15212;48.830;8.730;2023-07-29T05:20:09;17.00;99.90
27848;DHT22;15212;48.830;8.730;2023-07-29T05:22:38;17.00;99.90
27848;DHT22;15212;48.830;8.730;2023-07-29T05:25:06;17.00;99.90
27848;DHT22;15212;48.830;8.730;2023-07-29T05:27:35;17.10;99.90
27848;DHT22;15212;48.830;8.730;2023-07-29T05:30:04;17.10;99.90
27848;DHT22;15212;48.830;8.730;2023-07-29T05:32:34;17.20;99.90
27848;DHT22;15212;48.830;8.730;2023-07-29T05:35:02;17.20;99.90
27848;DHT22;15212;48.830;8.730;2023-07-29T05:37:31;17.30;99.90
27848;DHT22;15212;48.830;8.730;2023-07-29T05:39:59;17.30;99.90
27848;DHT22;15212;48.830;8.730;2023-07-29T05:42:27;17.40;99.90
27848;DHT22;15212;48.830;8.730;2023-07-29T05:44:56;17.50;99.90
27848;DHT22;15212;48.830;8.730;2023-07-29T05:47:24;17.50;99.90
27848;DHT22;15212;48.830;8.730;2023-07-29T05:49:53;17.50;99.90
27848;DHT22;15212;48.830;8.730;2023-07-29T05:52:21;17.50;99.90
27848;DHT22;15212;48.830;8.730;2023-07-29T05:54:50;17.50;99.90
27848;DHT22;15212;48.830;8.730;2023-07-29T05:57:18;17.60;99.90
27848;DHT22;15212;48.830;8.730;2023-07-29T05:59:46;17.60;99.90
27848;DHT22;15212;48.830;8.730;2023-07-29T06:02:15;17.60;99.90
27848;DHT22;15212;48.830;8.730;2023-07-29T06:04:43;17.60;99.90
27848;DHT22;15212;48.830;8.730;2023-07-29T06:07:11;17.60;99.90
27848;DHT22;15212;48.830;8.730;2023-07-29T06:09:40;17.60;99.90
27848;DHT22;15212;48.830;8.730;2023-07-29T06:12:08;17.60;99.90
27848;DHT22;15212;48.830;8.730;2023-07-29T06:14:37;17.60;99.90
27848;DHT22;15212;48.830;8.730;2023-07-29T06:17:05;17.50;99.90
27848;DHT22;15212;48.830;8.730;2023-07-29T06:19:34;17.50;99.90
27848;DHT22;15212;48.830;8.730;2023-07-29T06:22:02;17.50;99.90
27848;DHT22;15212;48.830;8.730;2023-07-29T06:24:32;17.50;99.90
27848;DHT22;15212;48.830;8.730;2023-07-29T06:27:00;17.50;99.90
27848;DHT22;15212;48.830;8.730;2023-07-29T06:29:29;17.50;99.90
27848;DHT22;15212;48.830;8.730;2023-07-29T06:31:58;17.60;99.90
27848;DHT22;15212;48.830;8.730;2023-07-29T06:34:27;17.50;99.90
27848;DHT22;15212;48.830;8.730;2023-07-29T06:36:55;17.60;99.90
27848;DHT22;15212;48.830;8.730;2023-07-29T06:39:24;17.60;99.90
27848;DHT22;15212;48.830;8.730;2023-07-29T06:41:52;17.60;99.90
27848;DHT22;15212;48.830;8.730;2023-07-29T06:44:20;17.60;99.90
27848;DHT22;15212;48.830;8.730;2023-07-29T06:46:49;17.60;99.90
27848;DHT22;15212;48.830;8.730;2023-07-29T06:49:17;17.60;99.90
27848;DHT22;15212;48.830;8.730;2023-07-29T06:51:46;17.60;99.90
27848;DHT22;15212;48.830;8.730;2023-07-29T06:54:15;17.60;99.90
27848;DHT22;15212;48.830;8.730;2023-07-29T06:56:44;17.70;99.90
27848;DHT22;15212;48.830;8.730;2023-07-29T06:59:12;17.70;99.90
27848;DHT22;15212;48.830;8.730;2023-07-29T07:01:41;17.70;99.90
27848;DHT22;15212;48.830;8.730;2023-07-29T07:04:09;17.70;99.90
27848;DHT22;15212;48.830;8.730;2023-07-29T07:06:37;17.80;99.90
27848;DHT22;15212;48.830;8.730;2023-07-29T07:09:06;17.80;99.90
27848;DHT22;15212;48.830;8.730;2023-07-29T07:11:34;17.80;99.90
27848;DHT22;15212;48.830;8.730;2023-07-29T07:14:03;17.90;99.90
27848;DHT22;15212;48.830;8.730;2023-07-29T07:16:31;17.90;99.90
27848;DHT22;15212;48.830;8.730;2023-07-29T07:18:59;18.00;99.90
27848;DHT22;15212;48.830;8.730;2023-07-29T07:21:28;18.00;99.90
27848;DHT22;15212;48.830;8.730;2023-07-29T07:23:56;18.10;99.90
27848;DHT22;15212;48.830;8.730;2023-07-29T07:26:24;18.10;99.90
27848;DHT22;15212;48.830;8.730;2023-07-29T07:28:53;18.20;99.90
27848;DHT22;15212;48.830;8.730;2023-07-29T07:31:22;18.20;99.90
27848;DHT22;15212;48.830;8.730;2023-07-29T07:33:50;18.20;99.90
27848;DHT22;15212;48.830;8.730;2023-07-29T07:36:19;18.30;99.90
27848;DHT22;15212;48.830;8.730;2023-07-29T07:38:48;18.40;99.90
27848;DHT22;15212;48.830;8.730;2023-07-29T07:41:16;18.50;99.90
27848;DHT22;15212;48.830;8.730;2023-07-29T07:43:44;19.00;99.90
27848;DHT22;15212;48.830;8.730;2023-07-29T07:46:13;19.60;99.90
27848;DHT22;15212;48.830;8.730;2023-07-29T07:48:41;20.40;99.90
27848;DHT22;15212;48.830;8.730;2023-07-29T07:51:11;21.10;99.90
27848;DHT22;15212;48.830;8.730;2023-07-29T07:53:40;21.60;99.90
27848;DHT22;15212;48.830;8.730;2023-07-29T07:56:08;21.70;99.90
27848;DHT22;15212;48.830;8.730;2023-07-29T07:58:37;21.90;99.90
27848;DHT22;15212;48.830;8.730;2023-07-29T08:01:07;21.90;99.90
27848;DHT22;15212;48.830;8.730;2023-07-29T08:03:36;21.60;99.90
27848;DHT22;15212;48.830;8.730;2023-07-29T08:06:04;21.20;99.90
27848;DHT22;15212;48.830;8.730;2023-07-29T08:08:33;20.90;99.90
27848;DHT22;15212;48.830;8.730;2023-07-29T08:11:01;20.70;99.90
27848;DHT22;15212;48.830;8.730;2023-07-29T08:13:30;20.40;99.90
27848;DHT22;15212;48.830;8.730;2023-07-29T08:15:58;20.30;99.90
27848;DHT22;15212;48.830;8.730;2023-07-29T08:18:26;20.20;99.90
27848;DHT22;15212;48.830;8.730;2023-07-29T08:20:59;20.10;99.90
27848;DHT22;15212;48.830;8.730;2023-07-29T08:23:35;20.00;99.90
27848;DHT22;15212;48.830;8.730;2023-07-29T08:26:05;20.00;99.90
27848;DHT22;15212;48.830;8.730;2023-07-29T08:28:38;20.10;99.90
27848;DHT22;15212;48.830;8.730;2023-07-29T08:31:07;20.10;99.90
27848;DHT22;15212;48.830;8.730;2023-07-29T08:33:35;20.20;99.90
27848;DHT22;15212;48.830;8.730;2023-07-29T08:36:04;20.30;99.90
27848;DHT22;15212;48.830;8.730;2023-07-29T08:38:32;20.20;99.90
27848;DHT22;15212;48.830;8.730;2023-07-29T08:41:29;20.20;99.90
27848;DHT22;15212;48.830;8.730;2023-07-29T08:46:43;20.20;99.90
27848;DHT22;15212;48.830;8.730;2023-07-29T08:49:12;20.10;99.90
27848;DHT22;15212;48.830;8.730;2023-07-29T08:51:42;20.20;99.90
27848;DHT22;15212;48.830;8.730;2023-07-29T08:54:12;20.30;99.90
27848;DHT22;15212;48.830;8.730;2023-07-29T08:56:42;20.40;99.90
27848;DHT22;15212;48.830;8.730;2023-07-29T08:59:11;20.60;99.90
27848;DHT22;15212;48.830;8.730;2023-07-29T09:01:41;20.80;99.90
27848;DHT22;15212;48.830;8.730;2023-07-29T09:04:09;20.90;99.90
27848;DHT22;15212;48.830;8.730;2023-07-29T09:06:39;20.90;99.90
27848;DHT22;15212;48.830;8.730;2023-07-29T09:09:08;21.10;99.90
27848;DHT22;15212;48.830;8.730;2023-07-29T09:11:37;21.40;99.90
27848;DHT22;15212;48.830;8.730;2023-07-29T09:14:05;21.50;99.90
27848;DHT22;15212;48.830;8.730;2023-07-29T09:16:33;21.60;99.90
27848;DHT22;15212;48.830;8.730;2023-07-29T09:19:03;21.40;99.90
27848;DHT22;15212;48.830;8.730;2023-07-29T09:21:32;21.30;99.90
27848;DHT22;15212;48.830;8.730;2023-07-29T09:24:02;21.20;99.90
27848;DHT22;15212;48.830;8.730;2023-07-29T09:26:32;20.90;99.90
27848;DHT22;15212;48.830;8.730;2023-07-29T09:29:00;20.70;99.90
27848;DHT22;15212;48.830;8.730;2023-07-29T09:31:29;20.50;99.90
27848;DHT22;15212;48.830;8.730;2023-07-29T09:34:04;20.30;99.90
27848;DHT22;15212;48.830;8.730;2023-07-29T09:36:33;20.20;99.90
27848;DHT22;15212;48.830;8.730;2023-07-29T09:39:02;20.20;99.90
27848;DHT22;15212;48.830;8.730;2023-07-29T09:41:31;20.00;99.90
27848;DHT22;15212;48.830;8.730;2023-07-29T09:44:02;19.90;99.90
27848;DHT22;15212;48.830;8.730;2023-07-29T09:46:35;19.80;99.90
27848;DHT22;15212;48.830;8.730;2023-07-29T09:49:06;19.70;99.90
27848;DHT22;15212;48.830;8.730;2023-07-29T09:51:38;19.60;99.90
27848;DHT22;15212;48.830;8.730;2023-07-29T09:54:07;19.60;99.90
27848;DHT22;15212;48.830;8.730;2023-07-29T09:56:41;19.70;99.90
27848;DHT22;15212;48.830;8.730;2023-07-29T09:59:11;19.80;99.90
27848;DHT22;15212;48.830;8.730;2023-07-29T10:01:40;19.80;99.90
27848;DHT22;15212;48.830;8.730;2023-07-29T10:04:09;19.80;99.90
27848;DHT22;15212;48.830;8.730;2023-07-29T10:06:39;19.70;99.90
27848;DHT22;15212;48.830;8.730;2023-07-29T10:09:11;19.60;99.90
27848;DHT22;15212;48.830;8.730;2023-07-29T10:11:41;19.60;99.90
27848;DHT22;15212;48.830;8.730;2023-07-29T10:14:10;19.60;99.90
27848;DHT22;15212;48.830;8.730;2023-07-29T10:16:40;19.80;99.90
27848;DHT22;15212;48.830;8.730;2023-07-29T10:19:10;20.00;99.90
27848;DHT22;15212;48.830;8.730;2023-07-29T10:21:39;20.20;99.90
27848;DHT22;15212;48.830;8.730;2023-07-29T10:24:14;20.30;99.90
27848;DHT22;15212;48.830;8.730;2023-07-29T10:26:47;20.30;99.90
27848;DHT22;15212;48.830;8.730;2023-07-29T10:29:19;20.30;99.90
27848;DHT22;15212;48.830;8.730;2023-07-29T10:31:57;20.10;99.90
27848;DHT22;15212;48.830;8.730;2023-07-29T10:34:22;20.00;99.90
27848;DHT22;15212;48.830;8.730;2023-07-29T10:36:51;20.10;99.90
27848;DHT22;15212;48.830;8.730;2023-07-29T10:39:20;20.30;99.90
27848;DHT22;15212;48.830;8.730;2023-07-29T10:42:03;20.40;99.90
27848;DHT22;15212;48.830;8.730;2023-07-29T10:44:46;20.50;99.90
27848;DHT22;15212;48.830;8.730;2023-07-29T10:47:28;20.80;99.90
27848;DHT22;15212;48.830;8.730;2023-07-29T10:49:58;21.00;99.90
27848;DHT22;15212;48.830;8.730;2023-07-29T10:52:41;21.00;99.90
27848;DHT22;15212;48.830;8.730;2023-07-29T10:58:08;21.00;99.90
27848;DHT22;15212;48.830;8.730;2023-07-29T11:00:42;20.70;99.90
27848;DHT22;15212;48.830;8.730;2023-07-29T11:03:13;20.60;99.90
27848;DHT22;15212;48.830;8.730;2023-07-29T11:05:43;20.60;99.90
27848;DHT22;15212;48.830;8.730;2023-07-29T11:08:28;20.70;99.90
27848;DHT22;15212;48.830;8.730;2023-07-29T11:13:34;21.30;99.90
27848;DHT22;15212;48.830;8.730;2023-07-29T11:16:04;21.50;99.90
27848;DHT22;15212;48.830;8.730;2023-07-29T11:18:34;21.70;99.90
27848;DHT22;15212;48.830;8.730;2023-07-29T11:21:03;21.90;99.90
27848;DHT22;15212;48.830;8.730;2023-07-29T11:23:35;22.20;99.90
27848;DHT22;15212;48.830;8.730;2023-07-29T11:26:05;22.40;99.90
27848;DHT22;15212;48.830;8.730;2023-07-29T11:28:38;22.50;99.90
27848;DHT22;15212;48.830;8.730;2023-07-29T11:31:07;22.60;99.90
27848;DHT22;15212;48.830;8.730;2023-07-29T11:33:38;22.70;99.90
27848;DHT22;15212;48.830;8.730;2023-07-29T11:36:16;22.60;99.90
27848;DHT22;15212;48.830;8.730;2023-07-29T11:38:40;22.50;99.90
27848;DHT22;15212;48.830;8.730;2023-07-29T11:41:08;22.40;99.90
27848;DHT22;15212;48.830;8.730;2023-07-29T11:43:36;22.40;99.90
27848;DHT22;15212;48.830;8.730;2023-07-29T11:46:05;22.10;99.90
27848;DHT22;15212;48.830;8.730;2023-07-29T11:48:34;22.10;99.90
27848;DHT22;15212;48.830;8.730;2023-07-29T11:51:03;22.00;99.90
27848;DHT22;15212;48.830;8.730;2023-07-29T11:53:31;22.00;99.90
27848;DHT22;15212;48.830;8.730;2023-07-29T11:56:00;22.10;99.90
27848;DHT22;15212;48.830;8.730;2023-07-29T11:58:28;22.10;99.90
27848;DHT22;15212;48.830;8.730;2023-07-29T12:00:57;22.10;99.90
27848;DHT22;15212;48.830;8.730;2023-07-29T12:03:26;22.10;99.90
27848;DHT22;15212;48.830;8.730;2023-07-29T12:05:54;22.30;99.90
27848;DHT22;15212;48.830;8.730;2023-07-29T12:08:23;22.40;99.90
27848;DHT22;15212;48.830;8.730;2023-07-29T12:10:51;22.50;99.90
27848;DHT22;15212;48.830;8.730;2023-07-29T12:13:23;22.30;99.90
27848;DHT22;15212;48.830;8.730;2023-07-29T12:15:52;22.40;99.90
27848;DHT22;15212;48.830;8.730;2023-07-29T12:18:29;22.40;99.90
27848;DHT22;15212;48.830;8.730;2023-07-29T12:20:53;22.50;99.90
27848;DHT22;15212;48.830;8.730;2023-07-29T12:23:26;22.40;99.90
27848;DHT22;15212;48.830;8.730;2023-07-29T12:25:58;22.20;99.90
27848;DHT22;15212;48.830;8.730;2023-07-29T12:28:28;22.10;99.90
27848;DHT22;15212;48.830;8.730;2023-07-29T12:30:57;22.20;99.90
27848;DHT22;15212;48.830;8.730;2023-07-29T12:33:36;22.30;99.90
27848;DHT22;15212;48.830;8.730;2023-07-29T12:36:08;22.50;99.90
27848;DHT22;15212;48.830;8.730;2023-07-29T12:38:37;22.70;99.90
27848;DHT22;15212;48.830;8.730;2023-07-29T12:41:05;22.70;99.90
27848;DHT22;15212;48.830;8.730;2023-07-29T12:43:34;22.80;99.90
27848;DHT22;15212;48.830;8.730;2023-07-29T12:46:02;22.90;99.90
27848;DHT22;15212;48.830;8.730;2023-07-29T12:48:31;22.80;99.90
27848;DHT22;15212;48.830;8.730;2023-07-29T12:50:59;22.90;99.90
27848;DHT22;15212;48.830;8.730;2023-07-29T12:53:27;23.10;99.90
27848;DHT22;15212;48.830;8.730;2023-07-29T12:55:56;23.30;99.90
27848;DHT22;15212;48.830;8.730;2023-07-29T12:58:24;23.40;99.90
27848;DHT22;15212;48.830;8.730;2023-07-29T13:00:52;23.50;99.90
27848;DHT22;15212;48.830;8.730;2023-07-29T13:03:21;23.60;99.90
27848;DHT22;15212;48.830;8.730;2023-07-29T13:05:49;23.60;99.90
27848;DHT22;15212;48.830;8.730;2023-07-29T13:08:17;23.60;99.90
27848;DHT22;15212;48.830;8.730;2023-07-29T13:10:46;23.60;99.90
27848;DHT22;15212;48.830;8.730;2023-07-29T13:13:14;23.40;99.90
27848;DHT22;15212;48.830;8.730;2023-07-29T13:15:43;23.30;99.90
27848;DHT22;15212;48.830;8.730;2023-07-29T13:18:11;23.40;99.90
27848;DHT22;15212;48.830;8.730;2023-07-29T13:20:39;23.40;99.90
27848;DHT22;15212;48.830;8.730;2023-07-29T13:23:08;23.50;99.90
27848;DHT22;15212;48.830;8.730;2023-07-29T13:25:36;23.30;99.90
27848;DHT22;15212;48.830;8.730;2023-07-29T13:28:05;23.20;99.90
27848;DHT22;15212;48.830;8.730;2023-07-29T13:30:34;23.20;99.90
27848;DHT22;15212;48.830;8.730;2023-07-29T13:33:02;23.10;99.90
27848;DHT22;15212;48.830;8.730;2023-07-29T13:35:30;23.20;99.90
27848;DHT22;15212;48.830;8.730;2023-07-29T13:38:00;23.40;99.90
27848;DHT22;15212;48.830;8.730;2023-07-29T13:40:29;23.40;99.90
27848;DHT22;15212;48.830;8.730;2023-07-29T13:42:58;23.30;99.90
27848;DHT22;15212;48.830;8.730;2023-07-29T13:45:26;23.30;99.90
27848;DHT22;15212;48.830;8.730;2023-07-29T13:47:55;23.40;99.90
27848;DHT22;15212;48.830;8.730;2023-07-29T13:50:23;23.60;99.90
27848;DHT22;15212;48.830;8.730;2023-07-29T13:52:52;23.70;99.90
27848;DHT22;15212;48.830;8.730;2023-07-29T13:55:20;23.80;99.90
27848;DHT22;15212;48.830;8.730;2023-07-29T13:57:49;23.80;99.90
27848;DHT22;15212;48.830;8.730;2023-07-29T14:00:17;23.90;99.90
27848;DHT22;15212;48.830;8.730;2023-07-29T14:02:45;24.00;99.90
27848;DHT22;15212;48.830;8.730;2023-07-29T14:05:14;24.00;99.90
27848;DHT22;15212;48.830;8.730;2023-07-29T14:07:42;23.90;99.90
27848;DHT22;15212;48.830;8.730;2023-07-29T14:10:11;23.90;99.90
27848;DHT22;15212;48.830;8.730;2023-07-29T14:12:39;24.10;99.90
27848;DHT22;15212;48.830;8.730;2023-07-29T14:15:08;24.10;99.90
27848;DHT22;15212;48.830;8.730;2023-07-29T14:17:36;24.10;99.90
27848;DHT22;15212;48.830;8.730;2023-07-29T14:20:05;23.90;99.90
27848;DHT22;15212;48.830;8.730;2023-07-29T14:22:36;23.80;99.90
27848;DHT22;15212;48.830;8.730;2023-07-29T14:25:04;23.80;99.90
27848;DHT22;15212;48.830;8.730;2023-07-29T14:27:34;23.70;99.90
27848;DHT22;15212;48.830;8.730;2023-07-29T14:30:03;23.50;99.90
27848;DHT22;15212;48.830;8.730;2023-07-29T14:32:32;23.40;99.90
27848;DHT22;15212;48.830;8.730;2023-07-29T14:35:00;23.50;99.90
27848;DHT22;15212;48.830;8.730;2023-07-29T14:37:32;23.60;99.90
27848;DHT22;15212;48.830;8.730;2023-07-29T14:40:02;23.60;99.90
27848;DHT22;15212;48.830;8.730;2023-07-29T14:42:30;23.70;99.90
27848;DHT22;15212;48.830;8.730;2023-07-29T14:44:58;23.80;99.90
27848;DHT22;15212;48.830;8.730;2023-07-29T14:47:27;23.70;99.90
27848;DHT22;15212;48.830;8.730;2023-07-29T14:49:57;23.70;99.90
27848;DHT22;15212;48.830;8.730;2023-07-29T14:52:25;23.70;99.90
27848;DHT22;15212;48.830;8.730;2023-07-29T14:54:54;23.50;99.90
27848;DHT22;15212;48.830;8.730;2023-07-29T14:57:22;23.60;99.90
27848;DHT22;15212;48.830;8.730;2023-07-29T14:59:50;23.80;99.90
27848;DHT22;15212;48.830;8.730;2023-07-29T15:02:19;23.90;99.90
27848;DHT22;15212;48.830;8.730;2023-07-29T15:04:49;24.00;99.90
27848;DHT22;15212;48.830;8.730;2023-07-29T15:07:17;23.90;99.90
27848;DHT22;15212;48.830;8.730;2023-07-29T15:09:46;23.80;99.90
27848;DHT22;15212;48.830;8.730;2023-07-29T15:12:14;23.70;99.90
27848;DHT22;15212;48.830;8.730;2023-07-29T15:14:43;23.80;99.90
27848;DHT22;15212;48.830;8.730;2023-07-29T15:17:13;23.80;99.90
27848;DHT22;15212;48.830;8.730;2023-07-29T15:19:41;23.80;99.90
27848;DHT22;15212;48.830;8.730;2023-07-29T15:22:10;23.60;99.90
27848;DHT22;15212;48.830;8.730;2023-07-29T15:24:38;23.70;99.90
27848;DHT22;15212;48.830;8.730;2023-07-29T15:27:08;23.70;99.90
27848;DHT22;15212;48.830;8.730;2023-07-29T15:29:37;23.70;99.90
27848;DHT22;15212;48.830;8.730;2023-07-29T15:32:07;23.70;99.90
27848;DHT22;15212;48.830;8.730;2023-07-29T15:34:35;23.60;99.90
27848;DHT22;15212;48.830;8.730;2023-07-29T15:37:03;23.60;99.90
27848;DHT22;15212;48.830;8.730;2023-07-29T15:39:32;23.70;99.90
27848;DHT22;15212;48.830;8.730;2023-07-29T15:42:00;23.80;99.90
27848;DHT22;15212;48.830;8.730;2023-07-29T15:44:29;23.90;99.90
27848;DHT22;15212;48.830;8.730;2023-07-29T15:46:57;23.90;99.90
27848;DHT22;15212;48.830;8.730;2023-07-29T15:49:26;23.90;99.90
27848;DHT22;15212;48.830;8.730;2023-07-29T15:51:54;23.70;99.90
27848;DHT22;15212;48.830;8.730;2023-07-29T15:54:22;23.50;99.90